createdAt,value
2022-09-13T00:00:37.406Z,100195.78
2022-09-13T00:03:04.858Z,100191.34
2022-09-13T00:05:31.838Z,100199.38
2022-09-13T00:07:58.870Z,100195.00
2022-09-13T00:10:26.244Z,100193.78
2022-09-13T00:12:53.481Z,100193.75
2022-09-13T00:15:21.427Z,100192.94
2022-09-13T00:17:48.159Z,100184.06
2022-09-13T00:20:15.014Z,100190.53
2022-09-13T00:22:41.584Z,100186.06
2022-09-13T00:25:08.948Z,100189.69
2022-09-13T00:27:36.942Z,100176.81
2022-09-13T00:30:05.880Z,100179.22
2022-09-13T00:32:34.437Z,100172.78
2022-09-13T00:35:03.221Z,100172.78
2022-09-13T00:37:30.317Z,100169.56
2022-09-13T00:39:57.241Z,100170.41
2022-09-13T00:42:28.606Z,100168.81
2022-09-13T00:45:07.202Z,100171.22
2022-09-13T00:47:38.567Z,100167.97
2022-09-13T00:50:15.983Z,100161.16
2022-09-13T00:52:47.439Z,100163.16
2022-09-13T00:55:24.507Z,100158.31
2022-09-13T00:57:53.158Z,100154.31
2022-09-13T01:00:19.982Z,100151.06
2022-09-13T01:02:53.798Z,100145.50
2022-09-13T01:05:24.267Z,100145.44
2022-09-13T01:07:51.693Z,100153.53
2022-09-13T01:10:18.411Z,100154.31
2022-09-13T01:12:50.897Z,100159.50
2022-09-13T01:15:17.556Z,100156.66
2022-09-13T01:17:44.412Z,100155.09
2022-09-13T01:20:13.057Z,100159.94
2022-09-13T01:22:51.286Z,100152.69
2022-09-13T01:26:01.448Z,100143.41
2022-09-13T01:28:43.128Z,100130.97
2022-09-13T01:31:49.790Z,100125.34
2022-09-13T01:34:53.665Z,100139.81
2022-09-13T01:37:38.091Z,100125.75
2022-09-13T01:40:08.055Z,100123.25
2022-09-13T01:42:49.614Z,100120.47
2022-09-13T01:45:40.913Z,100108.41
2022-09-13T01:48:15.736Z,100105.25
2022-09-13T01:51:00.296Z,100098.00
2022-09-13T01:53:35.641Z,100095.59
2022-09-13T01:56:16.494Z,100094.81
2022-09-13T01:58:57.024Z,100091.53
2022-09-13T02:01:39.489Z,100087.13
2022-09-13T02:04:12.593Z,100083.13
2022-09-13T02:06:51.779Z,100087.94
2022-09-13T02:09:25.412Z,100088.38
2022-09-13T02:12:01.739Z,100085.56
2022-09-13T02:14:35.441Z,100081.94
2022-09-13T02:17:09.841Z,100068.25
2022-09-13T02:19:43.386Z,100069.84
2022-09-13T02:22:13.705Z,100075.50
2022-09-13T02:24:45.228Z,100073.13
2022-09-13T02:27:25.994Z,100060.19
2022-09-13T02:29:58.654Z,100054.16
2022-09-13T02:32:36.257Z,100040.91
2022-09-13T02:35:14.632Z,100065.00
2022-09-13T02:37:45.586Z,100072.63
2022-09-13T02:40:23.473Z,100077.44
2022-09-13T02:42:57.368Z,100081.88
2022-09-13T02:45:33.723Z,100083.47
2022-09-13T02:48:05.876Z,100080.25
2022-09-13T02:50:49.655Z,100069.03
2022-09-13T02:53:51.207Z,100068.25
2022-09-13T02:56:42.790Z,100062.19
2022-09-13T02:59:19.877Z,100061.41
2022-09-13T03:02:10.090Z,100066.63
2022-09-13T03:04:37.140Z,100062.22
2022-09-13T03:07:04.594Z,100065.38
2022-09-13T03:09:32.734Z,100077.06
2022-09-13T03:12:14.471Z,100087.91
2022-09-13T03:14:55.022Z,100081.06
2022-09-13T03:17:41.119Z,100087.50
2022-09-13T03:20:19.263Z,100094.72
2022-09-13T03:23:12.002Z,100105.97
2022-09-13T03:26:15.656Z,100113.16
2022-09-13T03:29:18.748Z,100116.41
2022-09-13T03:32:07.114Z,100110.00
2022-09-13T03:34:59.272Z,100126.81
2022-09-13T03:37:31.785Z,100126.81
2022-09-13T03:40:10.092Z,100126.81
2022-09-13T03:42:48.492Z,100126.00
2022-09-13T03:45:19.583Z,100120.41
2022-09-13T03:47:48.850Z,100130.47
2022-09-13T03:50:21.541Z,100133.28
2022-09-13T03:52:55.557Z,100131.66
2022-09-13T03:55:22.917Z,100138.91
2022-09-13T03:57:49.487Z,100133.25
2022-09-13T04:00:18.222Z,100132.84
2022-09-13T04:02:45.385Z,100135.59
2022-09-13T04:05:12.329Z,100135.63
2022-09-13T04:07:38.982Z,100131.97
2022-09-13T04:10:08.022Z,100121.16
2022-09-13T04:12:37.839Z,100121.16
2022-09-13T04:15:05.318Z,100125.19
2022-09-13T04:17:32.028Z,100123.94
2022-09-13T04:19:58.832Z,100118.69
2022-09-13T04:22:25.610Z,100121.09
2022-09-13T04:24:52.933Z,100121.16
2022-09-13T04:27:19.755Z,100119.94
2022-09-13T04:29:46.302Z,100121.09
2022-09-13T04:32:13.052Z,100118.25
2022-09-13T04:34:39.737Z,100115.50
2022-09-13T04:37:06.586Z,100120.25
2022-09-13T04:39:33.333Z,100116.63
2022-09-13T04:42:00.000Z,100121.88
2022-09-13T04:44:27.188Z,100120.25
2022-09-13T04:46:54.027Z,100110.25
2022-09-13T04:49:21.873Z,100112.28
2022-09-13T04:51:48.834Z,100104.63
2022-09-13T04:54:16.421Z,100106.66
2022-09-13T04:56:44.159Z,100107.44
2022-09-13T04:59:12.060Z,100113.03
2022-09-13T05:01:39.652Z,100115.41
2022-09-13T05:04:08.314Z,100117.03
2022-09-13T05:06:34.988Z,100111.41
2022-09-13T05:09:02.791Z,100115.41
2022-09-13T05:11:29.905Z,100119.44
2022-09-13T05:13:58.651Z,100111.41
2022-09-13T05:16:28.170Z,100105.81
2022-09-13T05:18:55.448Z,100107.38
2022-09-13T05:21:22.100Z,100106.59
2022-09-13T05:23:50.546Z,100100.56
2022-09-13T05:26:18.108Z,100108.97
2022-09-13T05:28:45.050Z,100109.75
2022-09-13T05:31:21.180Z,100098.53
2022-09-13T05:33:52.897Z,100103.78
2022-09-13T05:36:19.857Z,100099.34
2022-09-13T05:38:46.664Z,100096.91
2022-09-13T05:41:13.356Z,100104.13
2022-09-13T05:43:40.217Z,100111.34
2022-09-13T05:46:10.790Z,100117.81
2022-09-13T05:48:38.547Z,100125.00
2022-09-13T05:51:15.732Z,100122.59
2022-09-13T05:53:45.184Z,100131.03
2022-09-13T05:56:17.565Z,100130.63
2022-09-13T05:58:46.746Z,100141.06
2022-09-13T06:01:13.541Z,100131.41
2022-09-13T06:03:40.608Z,100140.28
2022-09-13T06:06:08.608Z,100135.44
2022-09-13T06:08:35.970Z,100134.66
2022-09-13T06:11:08.308Z,100144.19
2022-09-13T06:13:36.167Z,100151.53
2022-09-13T06:16:05.399Z,100151.56
2022-09-13T06:18:33.340Z,100144.28
2022-09-13T06:21:03.934Z,100142.66
2022-09-13T06:23:31.002Z,100141.06
2022-09-13T06:26:17.558Z,100145.09
2022-09-13T06:28:48.519Z,100145.00
2022-09-13T06:31:17.488Z,100137.34
2022-09-13T06:33:44.716Z,100149.78
2022-09-13T06:36:20.007Z,100153.03
2022-09-13T06:38:48.780Z,100144.16
2022-09-13T06:41:18.702Z,100137.75
2022-09-13T06:43:46.652Z,100132.97
2022-09-13T06:46:23.897Z,100141.06
2022-09-13T06:48:52.683Z,100125.72
2022-09-13T06:51:22.368Z,100132.94
2022-09-13T06:53:49.850Z,100131.75
2022-09-13T06:56:19.733Z,100135.38
2022-09-13T06:58:49.042Z,100134.94
2022-09-13T07:01:18.796Z,100128.94
2022-09-13T07:03:48.362Z,100132.16
2022-09-13T07:06:22.587Z,100130.56
2022-09-13T07:08:51.481Z,100125.72
2022-09-13T07:11:20.315Z,100118.56
2022-09-13T07:13:51.149Z,100124.13
2022-09-13T07:16:19.046Z,100120.50
2022-09-13T07:18:46.542Z,100127.31
2022-09-13T07:21:13.422Z,100123.31
2022-09-13T07:23:40.353Z,100115.28
2022-09-13T07:26:08.053Z,100120.50
2022-09-13T07:28:40.843Z,100124.09
2022-09-13T07:31:17.801Z,100120.91
2022-09-13T07:33:45.218Z,100128.22
2022-09-13T07:36:12.885Z,100119.31
2022-09-13T07:38:42.077Z,100127.75
2022-09-13T07:41:15.936Z,100123.31
2022-09-13T07:43:43.410Z,100126.53
2022-09-13T07:46:16.713Z,100129.34
2022-09-13T07:48:45.284Z,100119.78
2022-09-13T07:51:17.842Z,100118.56
2022-09-13T07:53:46.354Z,100123.41
2022-09-13T07:56:15.610Z,100140.31
2022-09-13T07:58:44.292Z,100137.88
2022-09-13T08:01:22.873Z,100141.13
2022-09-13T08:04:05.101Z,100141.13
2022-09-13T08:06:33.851Z,100142.75
2022-09-13T08:09:00.530Z,100142.75
2022-09-13T08:11:48.315Z,100140.69
2022-09-13T08:14:17.182Z,100144.69
2022-09-13T08:16:44.459Z,100151.97
2022-09-13T08:19:14.712Z,100156.00
2022-09-13T08:21:42.720Z,100153.97
2022-09-13T08:24:15.776Z,100157.19
2022-09-13T08:26:42.490Z,100157.22
2022-09-13T08:29:09.225Z,100155.22
2022-09-13T08:31:36.213Z,100149.94
2022-09-13T08:34:02.783Z,100151.16
2022-09-13T08:36:30.089Z,100163.22
2022-09-13T08:39:00.227Z,100160.00
2022-09-13T08:41:48.867Z,100153.19
2022-09-13T08:44:15.568Z,100166.81
2022-09-13T08:46:45.838Z,100168.84
2022-09-13T08:49:18.595Z,100171.59
2022-09-13T08:51:50.062Z,100165.63
2022-09-13T08:54:18.658Z,100162.75
2022-09-13T08:57:08.818Z,100165.22
2022-09-13T08:59:59.102Z,100160.72
2022-09-13T09:02:47.223Z,100171.63
2022-09-13T09:05:21.793Z,100174.81
2022-09-13T09:07:57.212Z,100176.88
2022-09-13T09:10:33.973Z,100181.31
2022-09-13T09:13:24.289Z,100175.69
2022-09-13T09:15:55.197Z,100175.69
2022-09-13T09:18:31.802Z,100178.91
2022-09-13T09:21:00.808Z,100178.09
2022-09-13T09:23:41.580Z,100174.13
2022-09-13T09:26:17.076Z,100172.41
2022-09-13T09:29:06.442Z,100175.31
2022-09-13T09:32:00.244Z,100180.47
2022-09-13T09:34:57.438Z,100174.50
2022-09-13T09:37:26.387Z,100172.09
2022-09-13T09:39:55.404Z,100172.88
2022-09-13T09:42:25.496Z,100166.47
2022-09-13T09:44:57.505Z,100162.06
2022-09-13T09:47:29.526Z,100164.47
2022-09-13T09:50:10.070Z,100153.66
2022-09-13T09:52:45.637Z,100157.25
2022-09-13T09:55:29.883Z,100155.63
2022-09-13T09:58:06.399Z,100146.81
2022-09-13T10:00:36.209Z,100138.78
2022-09-13T10:03:07.762Z,100144.38
2022-09-13T10:05:35.430Z,100135.53
2022-09-13T10:08:05.341Z,100135.53
2022-09-13T10:10:37.810Z,100132.38
2022-09-13T10:13:08.018Z,100127.53
2022-09-13T10:15:35.477Z,100127.56
2022-09-13T10:21:04.812Z,100121.53
2022-09-13T10:23:35.970Z,100117.56
2022-09-13T10:26:13.940Z,100109.91
2022-09-13T10:28:52.814Z,100106.66
2022-09-13T10:31:20.953Z,100099.06
2022-09-13T10:33:50.435Z,100105.50
2022-09-13T10:36:41.575Z,100090.22
2022-09-13T10:39:17.927Z,100089.44
2022-09-13T10:41:52.062Z,100091.03
2022-09-13T10:44:39.704Z,100076.97
2022-09-13T10:47:46.461Z,100082.19
2022-09-13T10:50:28.555Z,100078.63
2022-09-13T10:52:57.421Z,100081.84
2022-09-13T10:55:31.510Z,100084.25
2022-09-13T10:58:03.535Z,100080.22
2022-09-13T11:00:45.017Z,100077.81
2022-09-13T11:03:27.203Z,100074.59
2022-09-13T11:06:06.134Z,100071.38
2022-09-13T11:08:36.387Z,100070.56
2022-09-13T11:11:24.746Z,100067.34
2022-09-13T11:14:30.505Z,100074.59
2022-09-13T11:17:10.632Z,100074.59
2022-09-13T11:19:45.474Z,100074.25
2022-09-13T11:22:21.214Z,100075.44
2022-09-13T11:24:47.793Z,100079.47
2022-09-13T11:27:46.442Z,100077.84
2022-09-13T11:30:19.595Z,100082.69
2022-09-13T11:32:58.072Z,100085.06
2022-09-13T11:35:36.476Z,100083.50
2022-09-13T11:38:03.082Z,100086.69
2022-09-13T11:40:44.284Z,100083.09
2022-09-13T11:43:30.195Z,100079.47
2022-09-13T11:46:14.841Z,100083.88
2022-09-13T11:49:07.313Z,100084.25
2022-09-13T11:52:07.659Z,100080.25
2022-09-13T11:54:59.484Z,100085.09
2022-09-13T11:57:42.269Z,100083.94
2022-09-13T12:00:21.086Z,100082.69
2022-09-13T12:03:35.731Z,100081.06
2022-09-13T12:06:13.580Z,100096.38
2022-09-13T12:08:45.442Z,100091.53
2022-09-13T12:11:24.023Z,100082.72
2022-09-13T12:13:57.237Z,100073.09
2022-09-13T12:16:35.879Z,100074.66
2022-09-13T12:19:28.306Z,100067.03
2022-09-13T12:21:58.699Z,100057.78
2022-09-13T12:24:31.251Z,100059.84
2022-09-13T12:27:04.227Z,100061.06
2022-09-13T12:30:02.497Z,100053.81
2022-09-13T12:32:29.285Z,100053.00
2022-09-13T12:35:19.941Z,100053.78
2022-09-13T12:38:04.386Z,100055.41
2022-09-13T12:40:50.531Z,100051.78
2022-09-13T12:43:42.152Z,100057.44
2022-09-13T12:46:36.733Z,100051.84
2022-09-13T12:49:18.139Z,100051.81
2022-09-13T12:52:01.772Z,100034.53
2022-09-13T12:55:00.317Z,100044.97
2022-09-13T12:58:10.836Z,100038.56
2022-09-13T13:01:09.382Z,100030.13
2022-09-13T13:03:56.751Z,100032.13
2022-09-13T13:06:29.294Z,100036.97
2022-09-13T13:08:58.573Z,100036.19
2022-09-13T13:11:28.317Z,100037.38
2022-09-13T13:14:09.471Z,100045.03
2022-09-13T13:16:40.654Z,100034.16
2022-09-13T13:19:33.788Z,100030.16
2022-09-13T13:22:37.748Z,100026.94
2022-09-13T13:25:32.107Z,100032.97
2022-09-13T13:27:59.451Z,100034.56
2022-09-13T13:30:40.211Z,100040.59
2022-09-13T13:33:19.949Z,100041.00
2022-09-13T13:35:47.297Z,100041.81
2022-09-13T13:38:33.417Z,100042.63
2022-09-13T13:41:36.032Z,100028.16
2022-09-13T13:44:22.615Z,100030.53
2022-09-13T13:46:52.304Z,100031.75
2022-09-13T13:49:31.058Z,100021.72
2022-09-13T13:52:06.866Z,100028.13
2022-09-13T13:54:42.415Z,100025.75
2022-09-13T13:57:38.687Z,100022.50
2022-09-13T14:00:22.249Z,100041.00
2022-09-13T14:02:54.781Z,100041.00
2022-09-13T14:05:27.521Z,100038.19
2022-09-13T14:08:19.227Z,100031.78
2022-09-13T14:11:04.676Z,100032.97
2022-09-13T14:14:00.031Z,100031.38
2022-09-13T14:16:37.104Z,100029.34
2022-09-13T14:19:18.666Z,100027.34
2022-09-13T14:21:45.483Z,100026.56
2022-09-13T14:24:24.611Z,100036.25
2022-09-13T14:26:54.409Z,100032.97
2022-09-13T14:29:23.102Z,100029.81
2022-09-13T14:31:52.070Z,100031.38
2022-09-13T14:34:28.496Z,100028.97
2022-09-13T14:36:58.243Z,100030.97
2022-09-13T14:39:26.789Z,100044.22
2022-09-13T14:42:14.166Z,100040.22
2022-09-13T14:44:45.362Z,100035.38
2022-09-13T14:47:29.793Z,100035.41
2022-09-13T14:50:12.489Z,100041.84
2022-09-13T14:52:44.631Z,100040.22
2022-09-13T14:55:19.161Z,100037.81
2022-09-13T14:57:53.410Z,100041.81
2022-09-13T15:00:24.275Z,100044.22
2022-09-13T15:03:04.413Z,100045.03
2022-09-13T15:05:33.813Z,100045.81
2022-09-13T15:08:00.500Z,100043.44
2022-09-13T15:10:31.820Z,100046.63
2022-09-13T15:12:58.752Z,100045.84
2022-09-13T15:15:26.319Z,100046.63
2022-09-13T15:17:59.940Z,100051.47
2022-09-13T15:20:45.685Z,100044.22
2022-09-13T15:23:26.557Z,100049.88
2022-09-13T15:25:56.891Z,100049.06
2022-09-13T15:28:29.758Z,100063.13
2022-09-13T15:30:59.342Z,100048.25
2022-09-13T15:33:32.003Z,100052.25
2022-09-13T15:36:20.696Z,100047.03
2022-09-13T15:39:16.956Z,100049.06
2022-09-13T15:41:55.572Z,100054.69
2022-09-13T15:44:22.921Z,100049.06
2022-09-13T15:46:55.460Z,100053.06
2022-09-13T15:49:25.588Z,100039.38
2022-09-13T15:51:58.022Z,100043.81
2022-09-13T15:54:30.910Z,100044.22
2022-09-13T15:56:58.833Z,100049.84
2022-09-13T15:59:25.553Z,100055.47
2022-09-13T16:01:53.419Z,100045.03
2022-09-13T16:04:20.220Z,100046.63
2022-09-13T16:06:47.207Z,100047.03
2022-09-13T16:09:25.226Z,100040.19
2022-09-13T16:11:52.430Z,100041.00
2022-09-13T16:14:20.222Z,100037.75
2022-09-13T16:16:47.462Z,100038.19
2022-09-13T16:19:22.466Z,100040.19
2022-09-13T16:21:50.073Z,100031.34
2022-09-13T16:24:17.135Z,100035.38
2022-09-13T16:26:43.933Z,100032.56
2022-09-13T16:29:12.298Z,100036.16
2022-09-13T16:31:39.443Z,100046.63
2022-09-13T16:34:06.594Z,100053.84
2022-09-13T16:36:34.134Z,100047.81
2022-09-13T16:39:00.953Z,100053.03
2022-09-13T16:41:27.609Z,100043.44
2022-09-13T16:43:55.361Z,100038.66
2022-09-13T16:46:22.055Z,100029.84
2022-09-13T16:48:55.986Z,100018.59
2022-09-13T16:51:24.086Z,100023.47
2022-09-13T16:53:52.395Z,100026.28
2022-09-13T16:56:24.400Z,100019.44
2022-09-13T16:58:52.510Z,100030.31
2022-09-13T17:01:22.480Z,100019.47
2022-09-13T17:03:54.054Z,100006.59
2022-09-13T17:06:24.009Z,100014.25
2022-09-13T17:08:54.191Z,100005.38
2022-09-13T17:11:23.525Z,100008.22
2022-09-13T17:13:50.573Z,100008.19
2022-09-13T17:16:24.821Z,100015.44
2022-09-13T17:18:52.394Z,100016.63
2022-09-13T17:21:19.602Z,100023.50
2022-09-13T17:23:46.716Z,100017.84
2022-09-13T17:26:13.438Z,100017.44
2022-09-13T17:28:40.080Z,100020.25
2022-09-13T17:31:07.069Z,100009.38
2022-09-13T17:33:33.727Z,100017.44
2022-09-13T17:36:02.122Z,100020.25
2022-09-13T17:38:28.937Z,100015.41
2022-09-13T17:40:59.809Z,100019.84
2022-09-13T17:43:26.447Z,100008.16
2022-09-13T17:45:53.097Z,100004.56
2022-09-13T17:48:19.743Z,100002.53
2022-09-13T17:50:46.453Z,100005.38
2022-09-13T17:53:13.203Z,100000.13
2022-09-13T17:55:49.674Z,100000.13
2022-09-13T17:58:16.722Z,99999.31
2022-09-13T18:00:44.268Z,100003.31
2022-09-13T18:03:11.595Z,100002.13
2022-09-13T18:05:38.354Z,99995.28
2022-09-13T18:08:05.154Z,99996.06
2022-09-13T18:10:53.572Z,99991.25
2022-09-13T18:13:19.526Z,99991.25
2022-09-13T18:15:56.969Z,99988.03
2022-09-13T18:18:24.310Z,99984.00
2022-09-13T18:20:51.118Z,99987.22
2022-09-13T18:23:17.939Z,99984.00
2022-09-13T18:25:45.657Z,99980.41
2022-09-13T18:28:12.269Z,99967.94
2022-09-13T18:30:39.041Z,99982.38
2022-09-13T18:33:09.610Z,99973.16
2022-09-13T18:35:37.932Z,99973.53
2022-09-13T18:38:04.878Z,99970.34
2022-09-13T18:40:31.546Z,99979.97
2022-09-13T18:42:59.160Z,99969.13
2022-09-13T18:45:26.128Z,99975.97
2022-09-13T18:47:52.932Z,99978.38
2022-09-13T18:50:20.192Z,99970.34
2022-09-13T18:52:47.003Z,99975.97
2022-09-13T18:55:13.731Z,99973.94
2022-09-13T18:57:40.663Z,99973.53
2022-09-13T19:00:08.222Z,99976.78
2022-09-13T19:02:35.580Z,99977.63
2022-09-13T19:05:06.446Z,99976.00
2022-09-13T19:07:33.671Z,99970.41
2022-09-13T19:10:00.310Z,99962.75
2022-09-13T19:12:27.043Z,99970.41
2022-09-13T19:14:53.652Z,99972.78
2022-09-13T19:17:20.219Z,99987.31
2022-09-13T19:19:47.780Z,99984.06
2022-09-13T19:22:14.461Z,99982.50
2022-09-13T19:24:44.171Z,99991.38
2022-09-13T19:27:11.116Z,99994.97
2022-09-13T19:29:40.010Z,99991.75
2022-09-13T19:32:06.885Z,99997.41
2022-09-13T19:34:33.553Z,100000.19
2022-09-13T19:37:00.343Z,100004.22
2022-09-13T19:39:29.821Z,99993.78
2022-09-13T19:41:58.183Z,99989.72
2022-09-13T19:44:24.925Z,99985.72
2022-09-13T19:47:06.938Z,99987.31
2022-09-13T19:49:38.546Z,100004.22
2022-09-13T19:52:05.225Z,100001.41
2022-09-13T19:54:32.608Z,99996.19
2022-09-13T19:57:00.411Z,99994.56
2022-09-13T19:59:27.079Z,99996.16
2022-09-13T20:01:53.873Z,99992.94
2022-09-13T20:04:21.634Z,99987.28
2022-09-13T20:06:50.303Z,99983.25
2022-09-13T20:09:19.882Z,99985.69
2022-09-13T20:11:48.676Z,99984.84
2022-09-13T20:14:17.527Z,99977.63
2022-09-13T20:16:44.624Z,99984.84
2022-09-13T20:19:39.324Z,99976.81
2022-09-13T20:22:06.378Z,99974.41
2022-09-13T20:24:33.008Z,99967.16
2022-09-13T20:26:59.720Z,99975.19
2022-09-13T20:29:26.409Z,99970.34
2022-09-13T20:31:55.340Z,99975.19
2022-09-13T20:34:21.836Z,99979.22
2022-09-13T20:36:48.724Z,99976.81
2022-09-13T20:39:15.661Z,99974.38
2022-09-13T20:41:43.554Z,99971.97
2022-09-13T20:44:10.773Z,99976.78
2022-09-13T20:46:39.232Z,99975.19
2022-09-13T20:49:08.486Z,99970.38
2022-09-13T20:51:35.123Z,99971.16
2022-09-13T20:54:01.989Z,99971.97
2022-09-13T20:56:30.293Z,99972.78
2022-09-13T20:59:00.230Z,99968.72
2022-09-13T21:01:29.728Z,99956.66
2022-09-13T21:03:57.285Z,99963.13
2022-09-13T21:06:26.836Z,99977.19
2022-09-13T21:08:56.320Z,99965.50
2022-09-13T21:11:35.003Z,99969.53
2022-09-13T21:14:07.380Z,99963.91
2022-09-13T21:16:37.634Z,99958.28
2022-09-13T21:19:05.300Z,99956.66
2022-09-13T21:21:35.956Z,99956.25
2022-09-13T21:24:04.802Z,99959.88
2022-09-13T21:26:32.178Z,99953.03
2022-09-13T21:28:59.205Z,99955.84
2022-09-13T21:31:31.950Z,99943.00
2022-09-13T21:34:01.858Z,99944.63
2022-09-13T21:36:30.167Z,99930.13
2022-09-13T21:38:57.180Z,99937.38
2022-09-13T21:41:26.339Z,99936.56
2022-09-13T21:43:53.962Z,99926.50
2022-09-13T21:46:24.040Z,99920.88
2022-09-13T21:48:54.674Z,99925.31
2022-09-13T21:51:22.693Z,99941.81
2022-09-13T21:53:57.589Z,99943.38
2022-09-13T21:56:27.502Z,99946.59
2022-09-13T21:58:59.211Z,99937.38
2022-09-13T22:01:28.976Z,99940.56
2022-09-13T22:03:55.971Z,99934.13
2022-09-13T22:06:23.604Z,99945.00
2022-09-13T22:08:53.015Z,99949.00
2022-09-13T22:11:25.586Z,99944.19
2022-09-13T22:13:53.653Z,99924.50
2022-09-13T22:16:23.563Z,99919.28
2022-09-13T22:18:53.233Z,99925.25
2022-09-13T22:21:23.153Z,99921.69
2022-09-13T22:23:50.119Z,99929.31
2022-09-13T22:26:20.727Z,99928.53
2022-09-13T22:28:48.397Z,99912.06
2022-09-13T22:31:20.708Z,99907.22
2022-09-13T22:33:48.165Z,99899.16
2022-09-13T22:36:16.866Z,99892.34
2022-09-13T22:38:45.362Z,99881.09
2022-09-13T22:41:23.479Z,99878.66
2022-09-13T22:43:50.744Z,99879.47
2022-09-13T22:46:21.441Z,99883.09
2022-09-13T22:48:48.959Z,99884.28
2022-09-13T22:51:17.869Z,99897.97
2022-09-13T22:53:46.414Z,99899.19
2022-09-13T22:56:20.337Z,99897.97
2022-09-13T22:58:48.286Z,99890.72
2022-09-13T23:01:17.520Z,99890.75
2022-09-13T23:03:46.247Z,99885.91
2022-09-13T23:06:15.761Z,99887.91
2022-09-13T23:08:42.600Z,99877.06
2022-09-13T23:11:24.194Z,99867.41
2022-09-13T23:13:53.180Z,99871.44
2022-09-13T23:16:21.333Z,99866.59
2022-09-13T23:18:48.668Z,99860.97
2022-09-13T23:21:18.503Z,99858.16
2022-09-13T23:23:45.368Z,99864.22
2022-09-13T23:26:17.378Z,99863.41
2022-09-13T23:28:46.294Z,99865.41
2022-09-13T23:31:17.206Z,99854.16
2022-09-13T23:33:47.382Z,99843.31
2022-09-13T23:36:16.302Z,99854.56
2022-09-13T23:38:47.067Z,99846.91
2022-09-13T23:41:14.619Z,99847.31
2022-09-13T23:43:41.209Z,99842.09
2022-09-13T23:46:08.595Z,99840.50
2022-09-13T23:48:35.522Z,99841.28
2022-09-13T23:51:07.762Z,99835.25
2022-09-13T23:53:36.469Z,99843.31
2022-09-13T23:56:04.305Z,99837.25
2022-09-13T23:58:32.101Z,99833.63
